Time;durP1;ratioP1;P1;durP2;ratioP2;P2;SDS_P1;SDS_P2;PMS_P1;PMS_P2;Temp;Humidity;BMP_temperature;BMP_pressure;BME280_temperature;BME280_humidity;BME280_pressure;Samples;Min_cycle;Max_cycle;Signal;HPM_P1;HPM_P2
2022/01/03 00:00:16;;;;;;;3.00;0.85;;;13.50;96.70;;;;;;5095895;28;20024;-85
2022/01/03 00:02:43;;;;;;;3.53;0.90;;;13.50;96.80;;;;;;5097203;28;20028;-85
2022/01/03 00:05:10;;;;;;;3.97;0.63;;;13.50;96.80;;;;;;5095571;28;20039;-84
2022/01/03 00:07:43;;;;;;;2.95;0.63;;;13.50;96.60;;;;;;5095592;28;20039;-84
2022/01/03 00:10:10;;;;;;;4.18;0.73;;;13.50;96.50;;;;;;5095413;28;20028;-85
2022/01/03 00:12:37;;;;;;;4.93;0.75;;;13.50;96.90;;;;;;5096690;28;20081;-86
2022/01/03 00:15:08;;;;;;;7.28;1.05;;;13.50;96.50;;;;;;5096305;28;20148;-85
2022/01/03 00:17:34;;;;;;;5.65;0.95;;;13.50;96.60;;;;;;5096003;28;20055;-85
2022/01/03 00:20:00;;;;;;;3.50;0.60;;;13.50;96.40;;;;;;5095061;28;20031;-84
2022/01/03 00:22:31;;;;;;;5.50;0.88;;;13.50;96.50;;;;;;5097136;28;20024;-85
2022/01/03 00:25:04;;;;;;;6.83;0.77;;;13.50;96.50;;;;;;5116996;28;20491;-84
2022/01/03 00:27:40;;;;;;;3.70;0.68;;;13.50;96.20;;;;;;5099079;28;20024;-85
2022/01/03 00:30:07;;;;;;;5.35;0.90;;;13.50;96.40;;;;;;5098631;28;20073;-85
2022/01/03 00:32:36;;;;;;;4.45;0.68;;;13.40;96.30;;;;;;5098881;28;20023;-85
2022/01/03 00:35:03;;;;;;;4.10;0.88;;;13.50;96.10;;;;;;5098208;28;20062;-84
2022/01/03 00:37:30;;;;;;;4.50;0.68;;;13.50;96.00;;;;;;5116782;28;20027;-85
2022/01/03 00:39:57;;;;;;;10.55;1.17;;;13.50;96.00;;;;;;5098216;28;20058;-84
2022/01/03 00:42:23;;;;;;;6.20;0.98;;;13.50;96.00;;;;;;5098146;28;20034;-84
2022/01/03 00:44:51;;;;;;;5.13;0.80;;;13.50;96.00;;;;;;5116383;28;20380;-85
2022/01/03 00:47:17;;;;;;;2.83;0.60;;;13.50;95.80;;;;;;5098274;28;20085;-85
2022/01/03 00:49:42;;;;;;;5.07;0.70;;;13.50;95.80;;;;;;5098460;28;20541;-84
2022/01/03 00:52:10;;;;;;;1.63;0.60;;;13.50;95.80;;;;;;5098139;28;20072;-84
2022/01/03 00:54:35;;;;;;;4.10;1.17;;;13.50;96.00;;;;;;5115851;28;20051;-85
2022/01/03 00:57:06;;;;;;;4.85;1.13;;;13.50;95.90;;;;;;5097982;28;20533;-85
2022/01/03 00:59:44;;;;;;;4.03;0.70;;;13.50;95.80;;;;;;5098557;28;20023;-85
2022/01/03 01:02:13;;;;;;;4.50;0.70;;;13.50;96.00;;;;;;5097819;28;20027;-85
2022/01/03 01:04:43;;;;;;;7.47;0.60;;;13.50;96.10;;;;;;5098496;28;20027;-85
2022/01/03 01:07:10;;;;;;;3.03;1.02;;;13.40;96.20;;;;;;5097863;28;20031;-85
2022/01/03 01:09:37;;;;;;;4.70;0.80;;;13.40;96.30;;;;;;5098020;28;20495;-85
2022/01/03 01:12:06;;;;;;;5.30;0.80;;;13.40;96.20;;;;;;5115540;28;20031;-84
2022/01/03 01:14:32;;;;;;;2.20;0.75;;;13.40;96.40;;;;;;5115970;28;20062;-85
2022/01/03 01:16:58;;;;;;;6.30;1.25;;;13.40;96.60;;;;;;5097375;28;20041;-85
2022/01/03 01:19:26;;;;;;;7.55;0.80;;;13.40;96.70;;;;;;5098039;28;20029;-85
2022/01/03 01:21:53;;;;;;;5.82;0.70;;;13.40;96.60;;;;;;5098042;28;20087;-85
2022/01/03 01:24:21;;;;;;;5.75;0.82;;;13.40;96.60;;;;;;5097702;28;20600;-85
2022/01/03 01:29:35;;;;;;;5.35;0.80;;;13.50;96.30;;;;;;5116071;28;20220;-84
2022/01/03 01:32:03;;;;;;;5.47;0.70;;;13.40;96.30;;;;;;5097269;28;20024;-85
2022/01/03 01:34:31;;;;;;;4.38;0.65;;;13.50;96.40;;;;;;5115696;28;20131;-85
2022/01/03 01:36:59;;;;;;;5.15;1.33;;;13.50;96.50;;;;;;5115794;28;20035;-84
2022/01/03 01:39:29;;;;;;;2.17;0.70;;;13.50;96.50;;;;;;5097757;28;20028;-84
2022/01/03 01:42:03;;;;;;;3.53;1.10;;;13.40;96.50;;;;;;5097606;28;20031;-85
2022/01/03 01:44:33;;;;;;;3.58;0.80;;;13.40;96.50;;;;;;5097878;28;20484;-85
2022/01/03 01:47:05;;;;;;;3.40;0.80;;;13.40;96.50;;;;;;5097133;28;20511;-84
2022/01/03 01:49:37;;;;;;;2.88;0.80;;;13.40;96.50;;;;;;5097803;28;20027;-82
2022/01/03 01:52:03;;;;;;;4.70;0.70;;;13.40;96.40;;;;;;5096896;28;20031;-83
2022/01/03 01:54:34;;;;;;;5.22;0.50;;;13.40;96.60;;;;;;5097233;28;20043;-83
2022/01/03 01:57:06;;;;;;;3.83;0.90;;;13.40;96.70;;;;;;5096966;28;20023;-82
2022/01/03 01:59:44;;;;;;;3.75;0.85;;;13.40;96.80;;;;;;5097200;28;20084;-84
2022/01/03 02:02:15;;;;;;;5.82;0.77;;;13.40;96.90;;;;;;5096778;28;20024;-84
2022/01/03 02:04:59;;;;;;;3.83;0.90;;;13.30;96.90;;;;;;5097510;28;20035;-84
2022/01/03 02:07:58;;;;;;;6.15;0.70;;;13.30;96.90;;;;;;5097160;28;20031;-84
2022/01/03 02:10:34;;;;;;;9.20;1.20;;;13.30;96.80;;;;;;5096620;28;20123;-85
2022/01/03 02:13:01;;;;;;;4.65;0.85;;;13.40;97.00;;;;;;5097051;28;20036;-85
2022/01/03 02:15:27;;;;;;;8.15;0.93;;;13.30;96.90;;;;;;5097059;28;20395;-85
2022/01/03 02:17:53;;;;;;;6.40;0.90;;;13.30;97.00;;;;;;5096910;28;20051;-85
2022/01/03 02:20:23;;;;;;;1.75;0.70;;;13.30;97.10;;;;;;5114445;28;20046;-85
2022/01/03 02:22:50;;;;;;;5.53;1.05;;;13.30;97.00;;;;;;5096878;28;20050;-85
2022/01/03 02:25:18;;;;;;;3.33;0.70;;;13.30;97.00;;;;;;5114371;28;20038;-85
2022/01/03 02:27:45;;;;;;;6.75;0.98;;;13.30;97.10;;;;;;5096912;28;20357;-85
2022/01/03 02:30:13;;;;;;;4.15;0.90;;;13.30;97.20;;;;;;5114487;28;20024;-85
2022/01/03 02:32:40;;;;;;;3.47;0.80;;;13.30;97.30;;;;;;5114573;28;20028;-85
2022/01/03 02:35:06;;;;;;;2.80;0.80;;;13.30;97.30;;;;;;5096057;28;20036;-85
2022/01/03 02:37:32;;;;;;;3.15;0.75;;;13.20;97.40;;;;;;5096634;28;20030;-85
2022/01/03 02:39:58;;;;;;;3.92;0.80;;;13.20;97.40;;;;;;5114659;28;20027;-85
2022/01/03 02:42:25;;;;;;;5.90;1.15;;;13.20;97.50;;;;;;5096148;28;20033;-85
2022/01/03 02:45:21;;;;;;;5.07;0.73;;;13.20;97.50;;;;;;5096597;28;20065;-85
2022/01/03 02:47:50;;;;;;;4.70;0.75;;;13.20;97.60;;;;;;5094631;28;20118;-85
2022/01/03 02:50:17;;;;;;;6.03;1.05;;;13.20;97.40;;;;;;5096195;28;20019;-84
2022/01/03 02:52:43;;;;;;;6.45;0.90;;;13.10;97.60;;;;;;5096874;28;20473;-85
2022/01/03 02:55:10;;;;;;;3.70;0.60;;;13.10;97.70;;;;;;5113901;28;20035;-85
2022/01/03 02:57:38;;;;;;;5.95;0.90;;;13.00;97.80;;;;;;5096502;28;20034;-84
2022/01/03 03:00:08;;;;;;;4.53;0.70;;;13.00;97.90;;;;;;5095561;28;20115;-84
2022/01/03 03:02:34;;;;;;;3.47;0.88;;;13.00;97.80;;;;;;5096585;28;20028;-85
2022/01/03 03:05:03;;;;;;;4.82;0.73;;;13.00;98.00;;;;;;5096389;28;20027;-86
2022/01/03 03:07:30;;;;;;;4.82;1.05;;;12.90;98.10;;;;;;5098882;28;20055;-85
2022/01/03 03:09:56;;;;;;;7.55;1.00;;;12.90;98.00;;;;;;5100360;28;20031;-85
2022/01/03 03:12:23;;;;;;;7.28;1.17;;;12.90;98.10;;;;;;5100106;28;20484;-85
2022/01/03 03:14:50;;;;;;;3.95;0.75;;;12.90;98.10;;;;;;5100493;28;20523;-85
2022/01/03 03:17:19;;;;;;;3.78;0.85;;;12.90;98.20;;;;;;5099863;28;20028;-85
2022/01/03 03:19:56;;;;;;;6.60;1.00;;;12.90;98.30;;;;;;5100071;28;20024;-85
2022/01/03 03:22:24;;;;;;;4.05;0.70;;;12.90;98.30;;;;;;5117770;28;20024;-85
2022/01/03 03:24:50;;;;;;;5.30;1.10;;;12.90;98.50;;;;;;5100285;28;20031;-85
2022/01/03 03:27:16;;;;;;;7.57;1.40;;;12.90;98.30;;;;;;5099733;28;20034;-85
2022/01/03 03:29:47;;;;;;;5.80;1.00;;;12.90;98.50;;;;;;5100187;28;20030;-86
2022/01/03 03:32:13;;;;;;;5.18;0.90;;;12.90;98.60;;;;;;5117913;28;20114;-85
2022/01/03 03:34:39;;;;;;;9.60;1.30;;;12.90;98.50;;;;;;5100168;28;20093;-85
2022/01/03 03:37:05;;;;;;;5.47;1.38;;;12.90;98.60;;;;;;5099648;28;20538;-84
2022/01/03 03:39:33;;;;;;;6.72;1.00;;;12.80;98.50;;;;;;5099786;28;20024;-85
2022/01/03 03:42:17;;;;;;;5.63;1.30;;;12.80;98.50;;;;;;5099446;28;20055;-85
2022/01/03 03:44:45;;;;;;;9.35;1.13;;;12.80;98.50;;;;;;5099676;28;20028;-85
2022/01/03 03:47:10;;;;;;;7.38;1.10;;;12.80;98.40;;;;;;5099518;28;20488;-85
2022/01/03 03:49:36;;;;;;;5.45;1.10;;;12.80;98.50;;;;;;5099973;28;20027;-84
2022/01/03 03:52:02;;;;;;;5.75;1.02;;;12.80;98.60;;;;;;5117799;28;20035;-85
2022/01/03 03:54:29;;;;;;;6.72;1.17;;;12.80;98.30;;;;;;5117308;28;20419;-84
2022/01/03 03:56:57;;;;;;;8.82;0.90;;;12.70;98.40;;;;;;5099558;28;20042;-85
2022/01/03 03:59:22;;;;;;;6.47;1.00;;;12.70;98.30;;;;;;5099147;28;20383;-84
2022/01/03 04:01:48;;;;;;;7.10;0.90;;;12.70;98.20;;;;;;5099541;28;20027;-84
2022/01/03 04:04:14;;;;;;;6.20;0.80;;;12.60;98.20;;;;;;5099132;28;20031;-85
2022/01/03 04:06:39;;;;;;;6.18;1.20;;;12.60;98.40;;;;;;5099424;28;20448;-85
2022/01/03 04:09:05;;;;;;;6.20;0.80;;;12.60;98.50;;;;;;5099363;28;20103;-85
2022/01/03 04:11:31;;;;;;;7.30;0.90;;;12.60;98.60;;;;;;5098806;28;20031;-85
2022/01/03 04:13:56;;;;;;;7.97;1.05;;;12.50;98.70;;;;;;5099392;28;20062;-85
2022/01/03 04:16:22;;;;;;;4.47;0.80;;;12.50;98.80;;;;;;5099121;28;20490;-85
2022/01/03 04:18:48;;;;;;;9.07;1.02;;;12.40;99.00;;;;;;5099208;28;20077;-85
2022/01/03 04:21:13;;;;;;;4.30;0.98;;;12.40;99.10;;;;;;5098911;28;20477;-85
2022/01/03 04:23:39;;;;;;;2.90;0.60;;;12.30;99.30;;;;;;5098923;28;20048;-85
2022/01/03 04:26:04;;;;;;;2.33;0.50;;;12.30;99.10;;;;;;5099151;28;20026;-85
2022/01/03 04:28:30;;;;;;;6.63;0.50;;;12.20;99.10;;;;;;5098567;28;20034;-85
2022/01/03 04:30:57;;;;;;;4.90;0.60;;;12.20;99.10;;;;;;5116946;28;20086;-85
2022/01/03 04:33:23;;;;;;;3.40;0.43;;;12.10;99.10;;;;;;5098411;28;20027;-85
2022/01/03 04:35:48;;;;;;;1.75;0.40;;;12.10;99.30;;;;;;5099187;28;20240;-85
2022/01/03 04:38:14;;;;;;;2.53;0.43;;;12.10;99.50;;;;;;5098438;28;20027;-85
2022/01/03 04:40:40;;;;;;;2.28;0.40;;;12.10;99.80;;;;;;5098727;28;20024;-85
2022/01/03 04:43:06;;;;;;;3.83;0.60;;;12.00;99.90;;;;;;5116745;28;20023;-85
2022/01/03 04:45:31;;;;;;;2.58;0.63;;;12.00;99.90;;;;;;5098323;28;20031;-85
2022/01/03 04:47:57;;;;;;;5.25;1.02;;;11.90;99.90;;;;;;5116803;28;20031;-85
2022/01/03 04:50:22;;;;;;;3.25;0.50;;;11.80;99.90;;;;;;5098365;28;20445;-85
2022/01/03 04:52:48;;;;;;;1.98;0.60;;;11.80;99.90;;;;;;5098516;28;20544;-85
2022/01/03 04:55:14;;;;;;;2.45;0.45;;;11.70;99.90;;;;;;5098033;28;20028;-85
2022/01/03 04:57:39;;;;;;;3.60;0.30;;;11.70;99.90;;;;;;5098548;28;20054;-85
2022/01/03 05:00:07;;;;;;;3.88;0.50;;;11.60;99.90;;;;;;5098531;28;20100;-85
2022/01/03 05:02:32;;;;;;;1.92;0.50;;;11.60;99.90;;;;;;5097985;28;20023;-85
2022/01/03 05:04:58;;;;;;;2.42;0.63;;;11.60;99.90;;;;;;5098365;28;20038;-85
2022/01/03 05:07:24;;;;;;;2.83;0.57;;;11.50;99.90;;;;;;5097845;28;20023;-85
2022/01/03 05:09:50;;;;;;;3.65;0.60;;;11.50;99.90;;;;;;5116195;28;20028;-85
2022/01/03 05:12:17;;;;;;;3.85;0.88;;;11.50;99.90;;;;;;5097726;28;20023;-84
2022/01/03 05:14:43;;;;;;;3.40;0.60;;;11.50;99.90;;;;;;5097977;28;20050;-85
2022/01/03 05:17:09;;;;;;;2.20;0.60;;;11.50;99.90;;;;;;5098502;28;20036;-84
2022/01/03 05:19:35;;;;;;;5.05;0.77;;;11.50;99.90;;;;;;5097805;28;20031;-85
2022/01/03 05:22:01;;;;;;;4.47;0.63;;;11.50;99.90;;;;;;5098138;28;20023;-85
2022/01/03 05:24:26;;;;;;;6.22;0.65;;;11.50;99.90;;;;;;5097406;28;20066;-85
2022/01/03 05:26:52;;;;;;;6.25;0.82;;;11.50;99.90;;;;;;5097718;28;20031;-84
2022/01/03 05:29:18;;;;;;;5.85;0.63;;;11.50;99.90;;;;;;5096993;28;20035;-84
2022/01/03 05:31:43;;;;;;;5.10;0.63;;;11.40;99.90;;;;;;5097811;28;20060;-85
2022/01/03 05:34:09;;;;;;;6.90;0.85;;;11.40;99.90;;;;;;5097695;28;20481;-85
2022/01/03 05:36:35;;;;;;;5.22;0.98;;;11.50;99.90;;;;;;5115277;28;20034;-85
2022/01/03 05:39:01;;;;;;;3.45;0.95;;;11.40;99.90;;;;;;5097925;28;20515;-85
2022/01/03 05:41:26;;;;;;;6.35;0.80;;;11.50;99.90;;;;;;5097381;28;20432;-85
2022/01/03 05:43:52;;;;;;;6.72;0.80;;;11.50;99.90;;;;;;5097345;28;20468;-85
2022/01/03 05:46:18;;;;;;;5.03;1.05;;;11.50;99.90;;;;;;5096882;28;20036;-85
2022/01/03 05:48:44;;;;;;;3.65;1.08;;;11.50;99.90;;;;;;5097789;28;20081;-85
2022/01/03 05:51:09;;;;;;;5.53;1.08;;;11.50;99.90;;;;;;5097502;28;20028;-85
2022/01/03 05:53:35;;;;;;;3.80;0.82;;;11.40;99.90;;;;;;5096670;28;20030;-85
2022/01/03 05:56:01;;;;;;;4.88;0.70;;;11.40;99.90;;;;;;5097306;28;20126;-85
2022/01/03 05:58:27;;;;;;;5.07;0.90;;;11.40;99.90;;;;;;5096815;28;20100;-84
2022/01/03 06:00:53;;;;;;;8.30;1.02;;;11.40;99.90;;;;;;5115439;28;20084;-85
2022/01/03 06:03:22;;;;;;;6.28;1.10;;;11.40;99.90;;;;;;5097167;28;20032;-84
2022/01/03 06:08:24;;;;;;;6.93;1.00;;;11.40;99.90;;;;;;5114717;28;20028;-84
2022/01/03 06:10:50;;;;;;;3.58;0.95;;;11.40;99.90;;;;;;5097044;28;20031;-85
2022/01/03 06:13:16;;;;;;;5.97;0.88;;;11.40;99.90;;;;;;5096635;28;20024;-84
2022/01/03 06:15:41;;;;;;;6.35;0.82;;;11.40;99.90;;;;;;5096966;28;20036;-85
2022/01/03 06:18:12;;;;;;;7.70;1.05;;;11.40;99.90;;;;;;5097138;28;20027;-85
2022/01/03 06:20:42;;;;;;;4.68;0.80;;;11.40;99.90;;;;;;5096581;28;20034;-85
2022/01/03 06:23:10;;;;;;;8.73;1.25;;;11.40;99.90;;;;;;5115035;28;20036;-85
2022/01/03 06:25:36;;;;;;;6.68;0.80;;;11.40;99.90;;;;;;5096500;28;20027;-85
2022/01/03 06:28:07;;;;;;;3.75;0.80;;;11.40;99.90;;;;;;5096494;28;20030;-85
2022/01/03 06:30:41;;;;;;;5.93;1.13;;;11.50;99.90;;;;;;5096393;28;20031;-85
2022/01/03 06:33:08;;;;;;;8.75;1.65;;;11.40;99.90;;;;;;5096666;28;20031;-85
2022/01/03 06:35:34;;;;;;;5.32;1.00;;;11.40;99.90;;;;;;5115192;28;20111;-84
2022/01/03 06:38:03;;;;;;;12.02;1.73;;;11.40;99.90;;;;;;5098562;28;20038;-84
2022/01/03 06:40:28;;;;;;;9.18;1.30;;;11.40;99.90;;;;;;5096850;28;20030;-85
2022/01/03 06:42:54;;;;;;;4.75;1.13;;;11.40;99.90;;;;;;5096352;28;20020;-85
2022/01/03 06:45:20;;;;;;;5.22;1.40;;;11.40;99.90;;;;;;5096416;28;20054;-85
2022/01/03 06:47:46;;;;;;;7.60;0.93;;;11.40;99.90;;;;;;5114824;28;20077;-85
2022/01/03 06:50:12;;;;;;;7.35;1.00;;;11.40;99.90;;;;;;5114492;28;20024;-85
2022/01/03 06:52:38;;;;;;;5.35;0.90;;;11.40;99.90;;;;;;5095913;28;20464;-84
2022/01/03 06:55:05;;;;;;;6.63;0.95;;;11.40;99.90;;;;;;5096472;28;20024;-85
2022/01/03 06:57:31;;;;;;;3.47;0.73;;;11.40;99.90;;;;;;5096008;28;20042;-85
2022/01/03 06:59:57;;;;;;;6.57;1.10;;;11.40;99.90;;;;;;5096361;28;20024;-85
2022/01/03 07:02:23;;;;;;;4.15;0.73;;;11.40;99.90;;;;;;5095963;28;20027;-85
2022/01/03 07:04:49;;;;;;;6.50;1.00;;;11.50;99.90;;;;;;5096171;28;20031;-85
2022/01/03 07:07:15;;;;;;;3.90;0.82;;;11.50;99.90;;;;;;5096294;28;20031;-85
2022/01/03 07:09:41;;;;;;;5.35;0.95;;;11.50;99.90;;;;;;5095897;28;20091;-84
2022/01/03 07:12:07;;;;;;;8.73;1.00;;;11.50;99.90;;;;;;5096471;28;20119;-85
2022/01/03 07:19:50;;;;;;;7.15;1.15;;;11.50;99.90;;;;;;5114305;28;20034;-85
2022/01/03 07:22:16;;;;;;;4.50;0.88;;;11.40;99.90;;;;;;5096207;28;20061;-84
2022/01/03 07:24:42;;;;;;;5.90;0.80;;;11.50;99.90;;;;;;5095576;28;20129;-85
2022/01/03 07:27:10;;;;;;;6.38;0.95;;;11.40;99.90;;;;;;5114356;28;20023;-85
2022/01/03 07:29:36;;;;;;;4.80;1.02;;;11.50;99.90;;;;;;5113930;28;20015;-85
2022/01/03 07:32:03;;;;;;;6.53;0.95;;;11.40;99.90;;;;;;5096151;28;20034;-85
2022/01/03 07:34:28;;;;;;;6.63;0.98;;;11.40;99.90;;;;;;5095570;28;20024;-85
2022/01/03 07:36:54;;;;;;;5.78;1.15;;;11.40;99.90;;;;;;5096087;28;20430;-84
2022/01/03 07:39:20;;;;;;;7.13;1.08;;;11.40;99.90;;;;;;5095561;28;20404;-84
2022/01/03 07:41:45;;;;;;;4.75;1.23;;;11.40;99.90;;;;;;5096102;28;20024;-85
2022/01/03 07:44:11;;;;;;;3.08;0.70;;;11.30;99.90;;;;;;5095876;28;20398;-85
2022/01/03 07:46:37;;;;;;;7.45;1.88;;;11.30;99.90;;;;;;5095489;28;20035;-85
2022/01/03 07:49:03;;;;;;;6.20;1.45;;;11.30;99.90;;;;;;5096252;28;20019;-85
2022/01/03 07:51:29;;;;;;;4.90;0.95;;;11.30;99.90;;;;;;5095867;28;20024;-85
2022/01/03 07:53:55;;;;;;;7.22;1.13;;;11.20;99.90;;;;;;5099044;28;20030;-85
2022/01/03 07:56:20;;;;;;;7.47;1.05;;;11.30;99.90;;;;;;5099375;28;20028;-84
2022/01/03 07:58:47;;;;;;;8.23;1.02;;;11.20;99.90;;;;;;5117630;28;20027;-85
2022/01/03 08:01:13;;;;;;;5.43;0.80;;;11.20;99.90;;;;;;5099711;28;20023;-85
2022/01/03 08:03:38;;;;;;;9.20;1.00;;;11.30;99.90;;;;;;5117246;28;20020;-85
2022/01/03 08:06:06;;;;;;;5.72;1.10;;;11.20;99.90;;;;;;5099560;28;20034;-85
2022/01/03 08:08:32;;;;;;;6.88;1.15;;;11.30;99.90;;;;;;5099054;28;20039;-84
2022/01/03 08:10:58;;;;;;;7.18;1.02;;;11.30;99.90;;;;;;5099879;28;20027;-85
2022/01/03 08:13:23;;;;;;;5.75;0.98;;;11.30;99.90;;;;;;5098916;28;20031;-85
2022/01/03 08:15:49;;;;;;;7.63;1.20;;;11.30;99.90;;;;;;5117316;28;20430;-85
2022/01/03 08:18:14;;;;;;;7.65;1.27;;;11.30;99.90;;;;;;5099465;28;20062;-85
2022/01/03 08:20:40;;;;;;;8.85;1.13;;;11.40;99.90;;;;;;5098665;28;20019;-85
2022/01/03 08:23:06;;;;;;;6.03;1.08;;;11.40;99.90;;;;;;5099016;28;20055;-85
2022/01/03 08:25:37;;;;;;;5.72;1.00;;;11.40;99.90;;;;;;5098726;28;20055;-85
2022/01/03 08:28:09;;;;;;;6.60;1.00;;;11.40;99.90;;;;;;5099091;28;20019;-85
2022/01/03 08:30:36;;;;;;;9.75;1.27;;;11.40;99.90;;;;;;5098865;28;20384;-85
2022/01/03 08:33:03;;;;;;;9.82;1.23;;;11.40;99.90;;;;;;5098657;28;20027;-85
2022/01/03 08:35:29;;;;;;;5.82;1.20;;;11.40;99.90;;;;;;5098252;28;20365;-85
2022/01/03 08:37:55;;;;;;;8.10;1.00;;;11.40;99.90;;;;;;5098942;28;20062;-85
2022/01/03 08:40:21;;;;;;;5.82;1.00;;;11.50;99.90;;;;;;5116761;28;20024;-85
2022/01/03 08:42:47;;;;;;;5.13;0.95;;;11.60;99.90;;;;;;5098181;28;20023;-85
2022/01/03 08:45:12;;;;;;;14.07;5.38;;;11.60;99.90;;;;;;5098409;28;20031;-84
2022/01/03 08:47:39;;;;;;;6.45;1.35;;;11.60;99.90;;;;;;5098156;28;20077;-84
2022/01/03 08:50:06;;;;;;;9.63;1.30;;;11.60;99.90;;;;;;5098659;28;20035;-84
2022/01/03 08:52:32;;;;;;;6.53;1.13;;;11.70;99.90;;;;;;5098094;28;20023;-84
2022/01/03 08:54:58;;;;;;;9.23;1.23;;;11.70;99.90;;;;;;5098558;28;20023;-84
2022/01/03 08:57:24;;;;;;;10.85;1.20;;;11.70;99.90;;;;;;5116056;28;20032;-84
2022/01/03 08:59:51;;;;;;;4.78;1.10;;;11.80;99.90;;;;;;5098269;28;20024;-85
2022/01/03 09:02:17;;;;;;;6.20;1.00;;;11.70;99.90;;;;;;5098707;28;20108;-85
2022/01/03 09:04:46;;;;;;;9.07;1.25;;;11.80;99.90;;;;;;5096852;28;20027;-84
2022/01/03 09:07:12;;;;;;;7.93;1.08;;;11.80;99.90;;;;;;5097822;28;20024;-85
2022/01/03 09:09:39;;;;;;;6.90;1.05;;;11.80;99.90;;;;;;5097910;28;20032;-84
2022/01/03 09:12:06;;;;;;;5.60;1.05;;;11.80;99.90;;;;;;5098083;28;20027;-85
2022/01/03 09:14:36;;;;;;;8.13;1.17;;;11.80;99.90;;;;;;5098082;28;20036;-84
2022/01/03 09:17:03;;;;;;;6.28;0.98;;;11.90;99.90;;;;;;5098177;28;20123;-84
2022/01/03 09:19:29;;;;;;;10.93;1.23;;;11.90;99.90;;;;;;5097724;28;20091;-85
2022/01/03 09:22:04;;;;;;;8.60;1.17;;;11.90;99.90;;;;;;5098166;28;20026;-85
2022/01/03 09:24:43;;;;;;;7.82;1.25;;;11.90;99.90;;;;;;5097354;28;20067;-84
2022/01/03 09:29:54;;;;;;;6.50;1.23;;;11.90;99.90;;;;;;5115820;28;20035;-85
2022/01/03 09:32:20;;;;;;;5.07;1.20;;;12.00;99.90;;;;;;5115749;28;20028;-85
2022/01/03 09:34:46;;;;;;;5.20;1.20;;;12.00;99.90;;;;;;5115498;28;20196;-85
2022/01/03 09:37:12;;;;;;;4.75;0.90;;;12.00;99.90;;;;;;5097891;28;20028;-85
2022/01/03 09:39:38;;;;;;;7.53;0.77;;;12.00;99.90;;;;;;5115087;28;20040;-84
2022/01/03 09:42:07;;;;;;;5.47;1.20;;;12.10;99.90;;;;;;5115625;28;20030;-85
2022/01/03 09:44:34;;;;;;;8.52;0.90;;;12.10;99.90;;;;;;5097203;28;20463;-85
2022/01/03 09:47:04;;;;;;;6.20;1.23;;;12.10;99.90;;;;;;5097520;28;20066;-85
2022/01/03 09:49:34;;;;;;;6.82;1.65;;;12.10;99.80;;;;;;5097058;28;20034;-85
2022/01/03 09:52:04;;;;;;;6.43;1.00;;;12.20;99.90;;;;;;5097547;28;20096;-85
2022/01/03 09:54:30;;;;;;;9.60;1.45;;;12.20;99.80;;;;;;5097191;28;20043;-84
2022/01/03 09:56:59;;;;;;;11.95;1.10;;;12.20;99.90;;;;;;5097635;28;20031;-85
2022/01/03 09:59:25;;;;;;;6.95;0.90;;;12.20;99.90;;;;;;5097443;28;20110;-86
2022/01/03 10:01:52;;;;;;;10.25;1.00;;;12.20;99.90;;;;;;5096973;28;20027;-86
2022/01/03 10:04:18;;;;;;;4.85;0.98;;;12.20;99.90;;;;;;5115148;28;20024;-86
2022/01/03 10:06:44;;;;;;;4.88;1.13;;;12.20;99.90;;;;;;5096804;28;20046;-87
2022/01/03 10:09:10;;;;;;;5.85;1.45;;;12.20;99.90;;;;;;5097327;28;20049;-85
2022/01/03 10:11:36;;;;;;;9.77;0.80;;;12.20;99.90;;;;;;5096581;28;20457;-85
2022/01/03 10:14:03;;;;;;;7.88;1.10;;;12.20;99.90;;;;;;5097004;28;20032;-86
2022/01/03 10:16:29;;;;;;;8.05;1.05;;;12.20;99.90;;;;;;5096764;28;20027;-83
2022/01/03 10:18:56;;;;;;;9.45;0.70;;;12.20;99.90;;;;;;5097314;28;20031;-86
2022/01/03 10:21:35;;;;;;;5.35;0.80;;;12.30;99.90;;;;;;5096971;28;20028;-86
2022/01/03 10:24:02;;;;;;;9.02;0.90;;;12.30;99.90;;;;;;5114759;28;20044;-87
2022/01/03 10:26:27;;;;;;;8.20;0.90;;;12.30;99.90;;;;;;5096783;28;20465;-86
2022/01/03 10:29:15;;;;;;;11.57;1.52;;;12.30;99.90;;;;;;5114394;28;20099;-86
2022/01/03 10:31:43;;;;;;;4.40;0.70;;;12.30;99.90;;;;;;5096004;28;20077;-86
2022/01/03 10:34:12;;;;;;;4.97;0.90;;;12.30;99.90;;;;;;5096708;28;20077;-85
2022/01/03 10:36:39;;;;;;;3.28;0.70;;;12.30;99.90;;;;;;5096230;28;20037;-85
2022/01/03 10:39:18;;;;;;;6.32;1.25;;;12.30;99.90;;;;;;5096779;28;20111;-85
2022/01/03 10:41:46;;;;;;;8.13;1.08;;;12.30;99.90;;;;;;5096201;28;20020;-85
2022/01/03 10:44:40;;;;;;;9.90;1.55;;;12.40;99.90;;;;;;5096680;28;20058;-85
2022/01/03 10:47:08;;;;;;;5.82;1.13;;;12.40;99.90;;;;;;5096487;28;20055;-85
2022/01/03 10:49:35;;;;;;;8.40;1.98;;;12.30;99.90;;;;;;5114038;28;20024;-84
2022/01/03 10:52:39;;;;;;;5.40;1.27;;;12.40;99.90;;;;;;5096328;28;20024;-85
2022/01/03 10:55:14;;;;;;;5.28;1.00;;;12.40;99.90;;;;;;5045832;28;20036;-85
2022/01/03 10:57:54;;;;;;;8.27;1.17;;;12.40;99.90;;;;;;5095876;28;20051;-84
2022/01/03 11:00:22;;;;;;;5.80;0.98;;;12.40;99.80;;;;;;5096494;28;20123;-85
2022/01/03 11:03:05;;;;;;;9.32;1.08;;;12.50;99.90;;;;;;5096113;28;20073;-85
2022/01/03 11:05:38;;;;;;;6.63;1.08;;;12.50;99.90;;;;;;5114559;28;20034;-84
2022/01/03 11:10:44;;;;;;;3.30;0.70;;;12.50;99.90;;;;;;5114125;28;20049;-83
2022/01/03 11:13:14;;;;;;;8.05;1.00;;;12.50;99.90;;;;;;5096229;28;20036;-85
2022/01/03 11:15:51;;;;;;;7.40;1.60;;;12.50;99.80;;;;;;5095960;28;20498;-84
2022/01/03 11:18:17;;;;;;;9.50;1.10;;;12.60;99.90;;;;;;5096219;28;20027;-85
2022/01/03 11:20:47;;;;;;;5.55;1.20;;;12.60;99.90;;;;;;5113838;28;20020;-84
2022/01/03 11:23:23;;;;;;;5.97;1.27;;;12.60;99.90;;;;;;5114199;28;20047;-85
2022/01/03 11:25:49;;;;;;;5.22;1.25;;;12.60;99.90;;;;;;5096035;28;20468;-87
2022/01/03 11:28:15;;;;;;;3.72;0.85;;;12.60;99.90;;;;;;5116474;28;20131;-86
2022/01/03 11:30:44;;;;;;;4.85;1.05;;;12.60;99.90;;;;;;5117404;28;20504;-87
2022/01/03 11:33:10;;;;;;;6.40;1.08;;;12.60;99.90;;;;;;5100098;28;20054;-85
2022/01/03 11:35:38;;;;;;;6.32;1.20;;;12.60;99.90;;;;;;5099647;28;20035;-84
2022/01/03 11:38:06;;;;;;;7.70;1.10;;;12.60;99.90;;;;;;5099724;28;20025;-84
2022/01/03 11:40:32;;;;;;;6.30;0.93;;;12.60;99.90;;;;;;5099888;28;20035;-86
2022/01/03 11:42:59;;;;;;;5.65;1.23;;;12.60;99.90;;;;;;5099345;28;20034;-86
2022/01/03 11:45:25;;;;;;;3.97;0.98;;;12.60;99.90;;;;;;5117861;28;20484;-86
2022/01/03 11:47:51;;;;;;;6.45;1.23;;;12.60;99.90;;;;;;5117297;28;20026;-86
2022/01/03 11:50:17;;;;;;;6.85;0.95;;;12.60;99.90;;;;;;5099810;28;20031;-86
2022/01/03 11:52:44;;;;;;;4.18;0.60;;;12.60;99.70;;;;;;5099150;28;20047;-86
2022/01/03 11:55:12;;;;;;;3.30;0.90;;;12.60;99.80;;;;;;5117560;28;20387;-85
2022/01/03 12:03:40;;;;;;;3.70;1.00;;;12.60;99.90;;;;;;5116969;28;20047;-85
2022/01/03 12:06:09;;;;;;;5.03;1.27;;;12.70;99.90;;;;;;5099783;28;20118;-86
2022/01/03 12:08:38;;;;;;;5.47;1.33;;;12.70;99.90;;;;;;5117457;28;20019;-86
2022/01/03 12:11:44;;;;;;;4.22;1.00;;;12.70;99.90;;;;;;5099357;28;20522;-86
2022/01/03 12:14:14;;;;;;;5.88;0.80;;;12.70;99.90;;;;;;5049574;28;20092;-86
2022/01/03 12:16:47;;;;;;;7.15;1.05;;;12.70;99.70;;;;;;5098991;28;20043;-84
2022/01/03 12:19:31;;;;;;;6.72;1.10;;;12.70;99.80;;;;;;5099350;28;20024;-85
2022/01/03 12:22:00;;;;;;;3.78;0.77;;;12.80;99.60;;;;;;5116755;28;20039;-85
2022/01/03 12:24:29;;;;;;;9.40;1.27;;;12.80;99.40;;;;;;5095337;28;20052;-85
2022/01/03 12:27:10;;;;;;;2.38;0.77;;;12.80;99.00;;;;;;5095325;28;20465;-85
2022/01/03 12:29:54;;;;;;;5.15;1.10;;;12.80;98.90;;;;;;5095903;28;20492;-85
2022/01/03 12:32:24;;;;;;;4.50;1.40;;;12.90;99.00;;;;;;5095434;28;20059;-85
2022/01/03 12:35:08;;;;;;;5.15;1.02;;;12.80;99.10;;;;;;5095048;28;20059;-85
2022/01/03 12:37:43;;;;;;;3.20;0.90;;;12.80;98.90;;;;;;5095505;28;20481;-85
2022/01/03 12:40:11;;;;;;;8.75;1.40;;;12.80;99.10;;;;;;5094258;28;20490;-85
2022/01/03 12:42:52;;;;;;;4.80;1.13;;;12.80;99.40;;;;;;5095352;28;20028;-85
2022/01/03 12:45:29;;;;;;;3.67;0.82;;;12.70;99.60;;;;;;5095322;28;20067;-85
2022/01/03 12:48:10;;;;;;;5.75;1.17;;;12.70;99.70;;;;;;5094860;28;20028;-84
2022/01/03 12:50:42;;;;;;;4.07;1.02;;;12.60;99.80;;;;;;5096387;28;20028;-85
2022/01/03 12:53:10;;;;;;;3.17;0.95;;;12.60;99.90;;;;;;5096288;28;20047;-85
2022/01/03 12:55:38;;;;;;;3.67;1.00;;;12.60;99.90;;;;;;5094937;28;20537;-85
2022/01/03 12:58:17;;;;;;;5.13;0.70;;;12.60;99.90;;;;;;5094747;28;20039;-85
2022/01/03 13:01:00;;;;;;;6.53;1.35;;;12.60;99.90;;;;;;5095638;28;20024;-85
2022/01/03 13:03:47;;;;;;;4.63;0.80;;;12.60;99.90;;;;;;5095985;28;20063;-85
2022/01/03 13:06:33;;;;;;;4.13;0.82;;;12.60;99.90;;;;;;5094985;28;20036;-85
2022/01/03 13:09:00;;;;;;;7.07;1.00;;;12.60;99.90;;;;;;5095630;28;20557;-85
2022/01/03 13:11:50;;;;;;;5.80;0.98;;;12.60;99.90;;;;;;5094666;28;20120;-85
2022/01/03 13:14:20;;;;;;;4.88;1.08;;;12.60;99.40;;;;;;5095326;28;20024;-85